sensor_id;sensor_type;location;lat;lon;timestamp;P1;durP1;ratioP1;P2;durP2;ratioP2
17636;SDS011;8937;51.236;6.794;2023-02-28T00:06:13;3.27;;;2.40;;
17636;SDS011;8937;51.236;6.794;2023-02-28T00:14:34;2.90;;;2.53;;
17636;SDS011;8937;51.236;6.794;2023-02-28T00:22:57;2.90;;;2.70;;
17636;SDS011;8937;51.236;6.794;2023-02-28T00:31:19;2.50;;;2.30;;
17636;SDS011;8937;51.236;6.794;2023-02-28T00:39:41;3.20;;;2.60;;
17636;SDS011;8937;51.236;6.794;2023-02-28T00:48:03;2.43;;;2.23;;
17636;SDS011;8937;51.236;6.794;2023-02-28T00:56:26;1.87;;;1.77;;
17636;SDS011;8937;51.236;6.794;2023-02-28T01:04:47;1.97;;;1.87;;
17636;SDS011;8937;51.236;6.794;2023-02-28T01:13:11;2.00;;;1.90;;
17636;SDS011;8937;51.236;6.794;2023-02-28T01:21:33;2.30;;;2.20;;
17636;SDS011;8937;51.236;6.794;2023-02-28T01:29:57;5.17;;;1.83;;
17636;SDS011;8937;51.236;6.794;2023-02-28T01:38:18;2.10;;;2.00;;
17636;SDS011;8937;51.236;6.794;2023-02-28T01:46:41;2.13;;;1.93;;
17636;SDS011;8937;51.236;6.794;2023-02-28T01:55:03;2.37;;;2.13;;
17636;SDS011;8937;51.236;6.794;2023-02-28T02:03:27;2.40;;;2.20;;
17636;SDS011;8937;51.236;6.794;2023-02-28T02:11:48;2.17;;;1.97;;
17636;SDS011;8937;51.236;6.794;2023-02-28T02:20:16;2.17;;;2.07;;
17636;SDS011;8937;51.236;6.794;2023-02-28T02:28:46;1.93;;;1.83;;
17636;SDS011;8937;51.236;6.794;2023-02-28T02:37:18;2.30;;;2.10;;
17636;SDS011;8937;51.236;6.794;2023-02-28T02:45:44;1.77;;;1.67;;
17636;SDS011;8937;51.236;6.794;2023-02-28T02:54:10;2.40;;;2.20;;
17636;SDS011;8937;51.236;6.794;2023-02-28T03:02:35;2.13;;;1.93;;
17636;SDS011;8937;51.236;6.794;2023-02-28T03:10:59;3.23;;;1.70;;
17636;SDS011;8937;51.236;6.794;2023-02-28T03:19:28;2.00;;;1.90;;
17636;SDS011;8937;51.236;6.794;2023-02-28T03:27:55;2.07;;;1.97;;
17636;SDS011;8937;51.236;6.794;2023-02-28T03:36:21;2.67;;;2.47;;
17636;SDS011;8937;51.236;6.794;2023-02-28T03:44:44;2.93;;;2.43;;
17636;SDS011;8937;51.236;6.794;2023-02-28T03:53:07;1.97;;;1.87;;
17636;SDS011;8937;51.236;6.794;2023-02-28T04:01:31;2.90;;;2.43;;
17636;SDS011;8937;51.236;6.794;2023-02-28T04:09:54;4.33;;;2.30;;
17636;SDS011;8937;51.236;6.794;2023-02-28T04:18:17;2.07;;;1.93;;
17636;SDS011;8937;51.236;6.794;2023-02-28T04:26:39;3.13;;;2.07;;
17636;SDS011;8937;51.236;6.794;2023-02-28T04:35:02;2.10;;;2.00;;
17636;SDS011;8937;51.236;6.794;2023-02-28T04:43:23;2.53;;;2.07;;
17636;SDS011;8937;51.236;6.794;2023-02-28T04:51:46;1.90;;;1.80;;
17636;SDS011;8937;51.236;6.794;2023-02-28T05:00:08;1.90;;;1.80;;
17636;SDS011;8937;51.236;6.794;2023-02-28T05:08:32;1.90;;;1.80;;
17636;SDS011;8937;51.236;6.794;2023-02-28T05:16:54;2.23;;;2.00;;
17636;SDS011;8937;51.236;6.794;2023-02-28T05:25:17;2.37;;;1.90;;
17636;SDS011;8937;51.236;6.794;2023-02-28T05:33:39;1.80;;;1.70;;
17636;SDS011;8937;51.236;6.794;2023-02-28T05:42:02;2.43;;;2.00;;
17636;SDS011;8937;51.236;6.794;2023-02-28T05:50:23;2.10;;;1.90;;
17636;SDS011;8937;51.236;6.794;2023-02-28T05:58:46;1.90;;;1.80;;
17636;SDS011;8937;51.236;6.794;2023-02-28T06:07:07;2.10;;;2.00;;
17636;SDS011;8937;51.236;6.794;2023-02-28T06:15:30;1.90;;;1.80;;
17636;SDS011;8937;51.236;6.794;2023-02-28T06:23:52;2.50;;;2.13;;
17636;SDS011;8937;51.236;6.794;2023-02-28T06:50:11;4.23;;;2.17;;
17636;SDS011;8937;51.236;6.794;2023-02-28T06:58:33;2.20;;;2.10;;
17636;SDS011;8937;51.236;6.794;2023-02-28T07:06:56;2.10;;;2.00;;
17636;SDS011;8937;51.236;6.794;2023-02-28T07:15:17;2.73;;;2.33;;
17636;SDS011;8937;51.236;6.794;2023-02-28T07:23:40;2.50;;;2.30;;
17636;SDS011;8937;51.236;6.794;2023-02-28T07:32:01;2.33;;;2.13;;
17636;SDS011;8937;51.236;6.794;2023-02-28T07:40:28;2.50;;;2.37;;
17636;SDS011;8937;51.236;6.794;2023-02-28T07:48:56;2.17;;;2.07;;
17636;SDS011;8937;51.236;6.794;2023-02-28T08:06:02;2.07;;;1.93;;
17636;SDS011;8937;51.236;6.794;2023-02-28T08:14:28;1.90;;;1.90;;
17636;SDS011;8937;51.236;6.794;2023-02-28T08:22:51;1.97;;;1.87;;
17636;SDS011;8937;51.236;6.794;2023-02-28T08:31:13;1.50;;;1.50;;
17636;SDS011;8937;51.236;6.794;2023-02-28T08:39:36;1.57;;;1.47;;
17636;SDS011;8937;51.236;6.794;2023-02-28T08:47:58;1.87;;;1.77;;
17636;SDS011;8937;51.236;6.794;2023-02-28T08:56:21;1.77;;;1.67;;
17636;SDS011;8937;51.236;6.794;2023-02-28T09:04:42;1.80;;;1.70;;
17636;SDS011;8937;51.236;6.794;2023-02-28T09:13:07;2.13;;;1.63;;
17636;SDS011;8937;51.236;6.794;2023-02-28T09:21:28;1.47;;;1.30;;
17636;SDS011;8937;51.236;6.794;2023-02-28T09:29:51;1.33;;;1.30;;
17636;SDS011;8937;51.236;6.794;2023-02-28T09:38:13;1.53;;;1.43;;
17636;SDS011;8937;51.236;6.794;2023-02-28T09:46:37;1.73;;;1.63;;
17636;SDS011;8937;51.236;6.794;2023-02-28T09:55:00;1.43;;;1.43;;
17636;SDS011;8937;51.236;6.794;2023-02-28T10:03:26;3.03;;;1.50;;
17636;SDS011;8937;51.236;6.794;2023-02-28T10:11:50;1.53;;;1.43;;
17636;SDS011;8937;51.236;6.794;2023-02-28T10:20:15;1.47;;;1.37;;
17636;SDS011;8937;51.236;6.794;2023-02-28T10:28:40;1.90;;;1.80;;
17636;SDS011;8937;51.236;6.794;2023-02-28T10:37:03;1.70;;;1.60;;
17636;SDS011;8937;51.236;6.794;2023-02-28T10:45:28;2.00;;;1.90;;
17636;SDS011;8937;51.236;6.794;2023-02-28T10:53:53;1.47;;;1.40;;
17636;SDS011;8937;51.236;6.794;2023-02-28T11:02:32;1.70;;;1.60;;
17636;SDS011;8937;51.236;6.794;2023-02-28T11:10:56;2.10;;;1.90;;
17636;SDS011;8937;51.236;6.794;2023-02-28T11:19:19;1.60;;;1.50;;
17636;SDS011;8937;51.236;6.794;2023-02-28T11:27:49;1.20;;;1.20;;
17636;SDS011;8937;51.236;6.794;2023-02-28T11:36:16;1.80;;;1.70;;
17636;SDS011;8937;51.236;6.794;2023-02-28T11:44:43;1.70;;;1.60;;
17636;SDS011;8937;51.236;6.794;2023-02-28T11:53:10;2.00;;;1.90;;
17636;SDS011;8937;51.236;6.794;2023-02-28T12:01:38;1.97;;;1.87;;
17636;SDS011;8937;51.236;6.794;2023-02-28T12:10:03;1.70;;;1.60;;
17636;SDS011;8937;51.236;6.794;2023-02-28T12:18:39;1.50;;;1.43;;
17636;SDS011;8937;51.236;6.794;2023-02-28T12:27:05;2.47;;;2.03;;
17636;SDS011;8937;51.236;6.794;2023-02-28T12:35:31;3.27;;;1.70;;
17636;SDS011;8937;51.236;6.794;2023-02-28T12:43:55;2.00;;;1.90;;
17636;SDS011;8937;51.236;6.794;2023-02-28T12:52:19;1.70;;;1.60;;
17636;SDS011;8937;51.236;6.794;2023-02-28T13:00:44;2.17;;;2.00;;
17636;SDS011;8937;51.236;6.794;2023-02-28T13:09:11;1.60;;;1.50;;
17636;SDS011;8937;51.236;6.794;2023-02-28T13:17:34;1.47;;;1.47;;
17636;SDS011;8937;51.236;6.794;2023-02-28T13:25:57;2.00;;;1.90;;
17636;SDS011;8937;51.236;6.794;2023-02-28T13:34:21;1.90;;;1.80;;
17636;SDS011;8937;51.236;6.794;2023-02-28T13:42:48;1.80;;;1.70;;
17636;SDS011;8937;51.236;6.794;2023-02-28T13:59:54;1.50;;;1.50;;
17636;SDS011;8937;51.236;6.794;2023-02-28T14:08:23;1.83;;;1.73;;
17636;SDS011;8937;51.236;6.794;2023-02-28T14:16:46;1.77;;;1.67;;
17636;SDS011;8937;51.236;6.794;2023-02-28T14:25:09;2.10;;;1.90;;
17636;SDS011;8937;51.236;6.794;2023-02-28T14:33:38;1.70;;;1.60;;
17636;SDS011;8937;51.236;6.794;2023-02-28T14:42:03;2.60;;;2.20;;
17636;SDS011;8937;51.236;6.794;2023-02-28T14:50:49;2.00;;;1.90;;
17636;SDS011;8937;51.236;6.794;2023-02-28T14:59:23;2.03;;;1.93;;
17636;SDS011;8937;51.236;6.794;2023-02-28T15:07:47;2.40;;;2.20;;
17636;SDS011;8937;51.236;6.794;2023-02-28T15:16:09;2.63;;;2.43;;
17636;SDS011;8937;51.236;6.794;2023-02-28T15:24:36;2.33;;;2.23;;
17636;SDS011;8937;51.236;6.794;2023-02-28T15:33:02;1.83;;;1.73;;
17636;SDS011;8937;51.236;6.794;2023-02-28T15:41:27;2.23;;;2.00;;
17636;SDS011;8937;51.236;6.794;2023-02-28T15:49:49;2.50;;;2.30;;
17636;SDS011;8937;51.236;6.794;2023-02-28T15:58:21;2.33;;;2.13;;
17636;SDS011;8937;51.236;6.794;2023-02-28T16:06:44;2.50;;;2.30;;
17636;SDS011;8937;51.236;6.794;2023-02-28T16:15:09;2.43;;;2.33;;
17636;SDS011;8937;51.236;6.794;2023-02-28T16:23:36;11.27;;;2.10;;
17636;SDS011;8937;51.236;6.794;2023-02-28T16:31:59;2.00;;;1.90;;
17636;SDS011;8937;51.236;6.794;2023-02-28T16:40:21;2.50;;;2.40;;
17636;SDS011;8937;51.236;6.794;2023-02-28T16:48:45;2.40;;;2.30;;
17636;SDS011;8937;51.236;6.794;2023-02-28T16:57:12;2.20;;;2.10;;
17636;SDS011;8937;51.236;6.794;2023-02-28T17:05:39;2.70;;;2.50;;
17636;SDS011;8937;51.236;6.794;2023-02-28T17:14:01;2.30;;;2.20;;
17636;SDS011;8937;51.236;6.794;2023-02-28T17:22:23;2.10;;;2.00;;
17636;SDS011;8937;51.236;6.794;2023-02-28T17:30:46;2.53;;;2.10;;
17636;SDS011;8937;51.236;6.794;2023-02-28T17:39:10;2.30;;;2.20;;
17636;SDS011;8937;51.236;6.794;2023-02-28T17:47:34;2.20;;;2.10;;
17636;SDS011;8937;51.236;6.794;2023-02-28T17:55:56;3.10;;;2.80;;
17636;SDS011;8937;51.236;6.794;2023-02-28T18:04:18;2.37;;;2.27;;
17636;SDS011;8937;51.236;6.794;2023-02-28T18:12:41;2.17;;;2.07;;
17636;SDS011;8937;51.236;6.794;2023-02-28T18:21:03;2.67;;;2.47;;
17636;SDS011;8937;51.236;6.794;2023-02-28T18:29:26;2.70;;;2.50;;
17636;SDS011;8937;51.236;6.794;2023-02-28T18:37:48;2.40;;;2.27;;
17636;SDS011;8937;51.236;6.794;2023-02-28T18:46:12;2.60;;;2.40;;
17636;SDS011;8937;51.236;6.794;2023-02-28T18:54:34;2.20;;;2.03;;
17636;SDS011;8937;51.236;6.794;2023-02-28T19:02:57;2.40;;;2.30;;
17636;SDS011;8937;51.236;6.794;2023-02-28T19:11:18;2.27;;;2.17;;
17636;SDS011;8937;51.236;6.794;2023-02-28T19:19:41;3.10;;;2.20;;
17636;SDS011;8937;51.236;6.794;2023-02-28T19:28:03;2.10;;;2.00;;
17636;SDS011;8937;51.236;6.794;2023-02-28T19:36:26;2.63;;;2.10;;
17636;SDS011;8937;51.236;6.794;2023-02-28T19:44:47;2.27;;;2.17;;
17636;SDS011;8937;51.236;6.794;2023-02-28T19:53:11;2.23;;;2.13;;
17636;SDS011;8937;51.236;6.794;2023-02-28T20:01:33;2.20;;;2.10;;
17636;SDS011;8937;51.236;6.794;2023-02-28T20:09:56;2.50;;;2.30;;
17636;SDS011;8937;51.236;6.794;2023-02-28T20:18:17;2.47;;;2.17;;
17636;SDS011;8937;51.236;6.794;2023-02-28T20:26:40;2.70;;;2.50;;
17636;SDS011;8937;51.236;6.794;2023-02-28T20:35:08;2.80;;;2.60;;
17636;SDS011;8937;51.236;6.794;2023-02-28T20:43:32;2.70;;;2.50;;
17636;SDS011;8937;51.236;6.794;2023-02-28T20:51:53;2.60;;;2.40;;
17636;SDS011;8937;51.236;6.794;2023-02-28T21:00:16;2.80;;;2.60;;
17636;SDS011;8937;51.236;6.794;2023-02-28T21:08:39;2.50;;;2.30;;
17636;SDS011;8937;51.236;6.794;2023-02-28T21:17:02;4.10;;;2.20;;
17636;SDS011;8937;51.236;6.794;2023-02-28T21:25:27;2.57;;;2.37;;
17636;SDS011;8937;51.236;6.794;2023-02-28T21:33:50;3.03;;;2.73;;
17636;SDS011;8937;51.236;6.794;2023-02-28T21:42:12;3.27;;;2.90;;
17636;SDS011;8937;51.236;6.794;2023-02-28T21:50:35;3.10;;;2.80;;
17636;SDS011;8937;51.236;6.794;2023-02-28T21:58:56;3.30;;;2.83;;
17636;SDS011;8937;51.236;6.794;2023-02-28T22:07:21;3.20;;;2.50;;
17636;SDS011;8937;51.236;6.794;2023-02-28T22:15:42;2.73;;;2.53;;
17636;SDS011;8937;51.236;6.794;2023-02-28T22:24:06;6.60;;;2.60;;
17636;SDS011;8937;51.236;6.794;2023-02-28T22:32:29;2.50;;;2.30;;
17636;SDS011;8937;51.236;6.794;2023-02-28T22:40:56;3.30;;;2.40;;
17636;SDS011;8937;51.236;6.794;2023-02-28T22:49:17;3.37;;;2.50;;
17636;SDS011;8937;51.236;6.794;2023-02-28T22:57:40;3.93;;;3.07;;
17636;SDS011;8937;51.236;6.794;2023-02-28T23:06:03;3.20;;;3.00;;
17636;SDS011;8937;51.236;6.794;2023-02-28T23:14:32;2.47;;;2.37;;
17636;SDS011;8937;51.236;6.794;2023-02-28T23:22:54;3.03;;;2.43;;
17636;SDS011;8937;51.236;6.794;2023-02-28T23:31:17;3.10;;;2.73;;
17636;SDS011;8937;51.236;6.794;2023-02-28T23:39:38;3.07;;;2.67;;
17636;SDS011;8937;51.236;6.794;2023-02-28T23:48:02;3.27;;;2.97;;
17636;SDS011;8937;51.236;6.794;2023-02-28T23:56:23;3.50;;;3.20;;
